Terminal Aerodrome Forecast
Issued by NWS

Home | Current Version | Previous Version | Graphics & Text | Print | Product List | Glossary On
Versions: 1 2 3 4 5 6 7 8 9 10 11 12 13 14 15 16 17 18 19 20 21 22 23 24 25 26 27 28 29 30 31 32 33 34 35 36 37 38 39 40 41 42 43 44 45 46 47 48 49 50
000
FTUS43 KLOT 250901 AAB
TAFGYY
TAF AMD
KGYY 250901Z 2509/2606 27013KT 6SM -SN SCT015 OVC022
      TEMPO 2510/2511 2SM -SN OVC015
     FM251100 29015G23KT 3SM -SN BR BKN015 OVC022
     FM251300 28018G26KT P6SM OVC020
     FM251700 29018G26KT P6SM OVC020
     FM252300 29017G25KT P6SM BKN035
     FM260500 27008KT P6SM SCT100=

USA.gov is the U.S. government's official web portal to all federal, state and local government web resources and services.